Aviation Digital Data Service (ADDS)

Output produced by METARs form (0341 UTC 23 December 2014)
found at http://aviationweather.gov/adds/metars/
 
KHUL 222320Z 2300/2324 00000KT P6SM OVC040 
     FM230500 00000KT 3SM BR OVC015 
     FM231200 12004KT 4SM BR OVC007